Terminal Aerodrome Forecast
Issued by NWS

Home | Current Version | Previous Version | Text Only | Print | Product List | Glossary On
Versions: 1 2 3 4 5 6 7 8 9 10 11 12
000
FTUS45 KPSR 291136
TAFBLH
TAF
KBLH 291136Z 2912/3012 20007KT P6SM FEW110
     FM291500 17016G24KT P6SM SCT100 SCT200
     FM300000 20008KT P6SM VCSH FEW090 SCT120 BKN200=

USA.gov is the U.S. government's official web portal to all federal, state and local government web resources and services.